createdAt,value
2018-01-12T00:00:04.730Z,52
2018-01-12T00:15:05.119Z,51
2018-01-12T00:30:04.922Z,51
2018-01-12T00:45:05.048Z,52
2018-01-12T01:00:04.458Z,52
2018-01-12T01:15:04.890Z,52
2018-01-12T01:30:05.023Z,52
2018-01-12T01:45:05.089Z,53
2018-01-12T02:00:04.562Z,52
2018-01-12T02:15:05.024Z,53
2018-01-12T02:30:05.707Z,52
2018-01-12T02:45:05.149Z,50
2018-01-12T03:00:08.213Z,50
2018-01-12T03:15:05.653Z,49
2018-01-12T03:30:04.870Z,49
2018-01-12T03:45:04.955Z,49
2018-01-12T04:00:05.362Z,49
2018-01-12T04:15:05.468Z,48
2018-01-12T04:30:04.626Z,48
2018-01-12T04:45:04.736Z,49
2018-01-12T05:00:04.874Z,48
2018-01-12T05:15:04.408Z,48
2018-01-12T05:30:05.344Z,48
2018-01-12T05:45:06.297Z,49
2018-01-12T06:00:06.292Z,49
2018-01-12T06:15:05.715Z,50
2018-01-12T06:30:07.410Z,50
2018-01-12T06:45:05.403Z,50
2018-01-12T07:00:04.316Z,50
2018-01-12T07:15:04.724Z,51
2018-01-12T07:30:23.664Z,49
2018-01-12T07:45:08.204Z,50
2018-01-12T08:00:08.138Z,50
2018-01-12T08:15:06.194Z,50
2018-01-12T08:30:05.983Z,49
2018-01-12T08:45:12.042Z,49
2018-01-12T09:00:04.995Z,49
2018-01-12T09:15:04.927Z,50
2018-01-12T09:30:08.683Z,49
2018-01-12T09:45:04.520Z,48
2018-01-12T10:00:04.842Z,48
2018-01-12T10:15:04.757Z,48
2018-01-12T10:30:04.844Z,48
2018-01-12T10:45:05.225Z,50
2018-01-12T11:00:06.132Z,50
2018-01-12T11:15:04.981Z,50
2018-01-12T11:30:05.093Z,51
2018-01-12T11:45:04.985Z,49
2018-01-12T12:00:15.040Z,50
2018-01-12T12:15:05.545Z,51
2018-01-12T12:30:04.641Z,50
2018-01-12T12:45:08.225Z,49
2018-01-12T13:00:06.206Z,49
2018-01-12T13:15:05.075Z,49
2018-01-12T13:30:05.657Z,48
2018-01-12T13:45:04.493Z,48
2018-01-12T14:00:05.487Z,50
2018-01-12T14:15:04.360Z,52
2018-01-12T14:30:04.697Z,50
2018-01-12T14:45:19.787Z,49
2018-01-12T15:00:04.669Z,49
2018-01-12T15:15:05.051Z,49
2018-01-12T15:30:05.061Z,49
2018-01-12T15:45:04.972Z,52
2018-01-12T16:00:05.856Z,53
2018-01-12T16:15:05.256Z,56
2018-01-12T16:30:04.921Z,52
2018-01-12T16:45:04.846Z,51
2018-01-12T17:00:04.766Z,49
2018-01-12T17:15:05.363Z,50
2018-01-12T17:30:04.611Z,49
2018-01-12T17:45:04.575Z,49
2018-01-12T18:00:04.948Z,48
2018-01-12T18:15:20.798Z,49
2018-01-12T18:30:05.254Z,49
2018-01-12T18:45:04.662Z,51
2018-01-12T19:00:05.876Z,48
2018-01-12T19:15:05.276Z,48
2018-01-12T19:30:04.528Z,48
2018-01-12T19:45:08.920Z,47
2018-01-12T20:00:20.260Z,47
2018-01-12T20:15:05.901Z,47
2018-01-12T20:30:05.118Z,47
2018-01-12T20:45:07.738Z,48
2018-01-12T21:00:12.720Z,48
2018-01-12T21:15:04.787Z,49
2018-01-12T21:30:07.715Z,47
2018-01-12T21:45:05.695Z,47
2018-01-12T22:00:05.020Z,48
2018-01-12T22:15:04.569Z,50
2018-01-12T22:30:05.234Z,48
2018-01-12T22:45:04.748Z,48
2018-01-12T23:00:05.473Z,47
2018-01-12T23:15:04.930Z,47
2018-01-12T23:30:06.236Z,47
2018-01-12T23:45:06.368Z,46
